Aérodrome :
LOGIN :

S'inscrire | Disclaimer

   EN    FR    IT 

 










Légende :    VFR   VFR Marginal   IFR   IFR Intensif   IFR Très Intensif
Visi : 
Plafond : 
>= 8 km
>= 3000ft
5 à 8 km
1000 à 3000 ft
1500m à 5 km
500 à 1000 ft
800 à 1500m
200 à 500 ft
< 800m
< 200 ft
Symboles :   Orages  Brouillard  Fortes neiges  Fortes précipitations  Vent > 20 kt
SIGMETs :   Divers  Orages  Givrage  Turbulence  Onde Orograph.  Cendres Volcan.







- Altitude de l'aérodrome : 24 ft
- Code IATA : SGD


EKSB - Sonderborg

DERNIER METAR :
  • 170920Z 24011KT 200V280 9999 SCT022 15/12 Q1016

METARs EXPIRÉS :
  • 170850Z 23011G21KT 200V260 9999 SCT015 15/12 Q1016
  • 170820Z 24010KT 200V260 9999 SCT015 BKN022 15/12 Q1016
  • 170720Z 23008KT 190V260 9999 SCT015 BKN022 15/13 Q1016
  • 170650Z 24009KT 200V270 9999 BKN022 15/12 Q1016

TAF TAF EKSB
Valide du 17 à 09h jusqu'au 17 à 18h UTC


170814Z 1709/1718 23015KT 9999 SCT025
TEMPO 1709/1718 24018G30KT
Pas de NOTAMs connus pour ce terrain.



MET'MAP, la Météo Aéronautique d'un coup d'oeil ! - Copyright ORBIFLY Décembre 2007 - Disclaimer

ORBIFLY MET'MAP TEAM :

Programmation & Développement : Alexandra Zaïnal
Conception & Développement : Baudouin d'Aumeries
Co-Programmation & Développement : Marc-Olivier Méhu
Soutien technique & logistique : Manuel Goepfert

Contact : metmap@orbifly.com




SOURCES & CREDITS :

   NOAA